EJU98X LFPG-EDDS
Flight info
| Callsign | EJU98X |
|---|---|
| Flight time | 1h 24m |
| Altitude | 23000 |
| Route | LANVI DCT LUPEN T126 REUTL REUTL1W |
| Aircraft | A20N/M-SDE2E3FGHIRWXY/LB1 |
Departure
| Time | 2026-05-06 18:06 |
|---|---|
| Airport | Charles de Gaulle International Airport (LFPG) |
Arrival
| Time | 2026-05-06 19:30 |
|---|---|
| Airport | Stuttgart Airport (EDDS) |
| Time | Latitude | Longitude | Altitude | Speed | Heading |
|---|---|---|---|---|---|
| 2026-05-06 17:12 | 49.00563 | 2.56820 | 364 ft | 0 kts | 212° |
| 2026-05-06 17:49 | 49.00562 | 2.56820 | 364 ft | 0 kts | 212° |
| 2026-05-06 17:49 | 49.00571 | 2.56828 | 364 ft | 2 kts | 212° |
| 2026-05-06 17:50 | 49.00584 | 2.56840 | 365 ft | 2 kts | 212° |
| 2026-05-06 17:50 | 49.00597 | 2.56853 | 365 ft | 2 kts | 212° |
| 2026-05-06 17:50 | 49.00610 | 2.56865 | 365 ft | 2 kts | 212° |
| 2026-05-06 17:50 | 49.00623 | 2.56877 | 365 ft | 2 kts | 212° |
| 2026-05-06 17:51 | 49.00635 | 2.56889 | 366 ft | 2 kts | 212° |
| 2026-05-06 17:51 | 49.00647 | 2.56900 | 366 ft | 1 kts | 232° |
| 2026-05-06 17:51 | 49.00651 | 2.56911 | 366 ft | 1 kts | 268° |
| 2026-05-06 17:51 | 49.00651 | 2.56922 | 366 ft | 0 kts | 268° |
| 2026-05-06 17:54 | 49.00651 | 2.56913 | 366 ft | 1 kts | 275° |
| 2026-05-06 17:54 | 49.00651 | 2.56884 | 366 ft | 4 kts | 268° |
| 2026-05-06 17:55 | 49.00648 | 2.56821 | 366 ft | 5 kts | 265° |
| 2026-05-06 17:55 | 49.00643 | 2.56734 | 364 ft | 11 kts | 266° |
| 2026-05-06 17:55 | 49.00636 | 2.56580 | 361 ft | 16 kts | 265° |
| 2026-05-06 17:55 | 49.00623 | 2.56400 | 355 ft | 18 kts | 263° |
| 2026-05-06 17:56 | 49.00613 | 2.56195 | 350 ft | 20 kts | 265° |
| 2026-05-06 17:56 | 49.00582 | 2.55986 | 346 ft | 20 kts | 250° |
| 2026-05-06 17:56 | 49.00564 | 2.55763 | 340 ft | 22 kts | 266° |
| 2026-05-06 17:56 | 49.00551 | 2.55525 | 335 ft | 22 kts | 265° |
| 2026-05-06 17:57 | 49.00552 | 2.55335 | 332 ft | 13 kts | 295° |
| 2026-05-06 17:57 | 49.00615 | 2.55257 | 335 ft | 11 kts | 342° |
| 2026-05-06 17:57 | 49.00695 | 2.55222 | 338 ft | 12 kts | 346° |
| 2026-05-06 17:57 | 49.00787 | 2.55184 | 341 ft | 14 kts | 341° |
| 2026-05-06 17:58 | 49.00885 | 2.55140 | 345 ft | 15 kts | 343° |
| 2026-05-06 17:58 | 49.01001 | 2.55089 | 349 ft | 18 kts | 343° |
| 2026-05-06 17:58 | 49.01125 | 2.55032 | 354 ft | 19 kts | 343° |
| 2026-05-06 17:58 | 49.01260 | 2.54976 | 358 ft | 21 kts | 345° |
| 2026-05-06 17:59 | 49.01409 | 2.54915 | 361 ft | 23 kts | 349° |
| 2026-05-06 17:59 | 49.01572 | 2.54886 | 365 ft | 22 kts | 356° |
| 2026-05-06 17:59 | 49.01716 | 2.54869 | 367 ft | 19 kts | 356° |
| 2026-05-06 17:59 | 49.01842 | 2.54856 | 370 ft | 15 kts | 357° |
| 2026-05-06 18:00 | 49.01951 | 2.54842 | 370 ft | 15 kts | 354° |
| 2026-05-06 18:00 | 49.02027 | 2.54898 | 372 ft | 12 kts | 78° |
| 2026-05-06 18:00 | 49.02036 | 2.55025 | 374 ft | 11 kts | 85° |
| 2026-05-06 18:00 | 49.02044 | 2.55151 | 374 ft | 12 kts | 85° |
| 2026-05-06 18:01 | 49.02053 | 2.55295 | 374 ft | 14 kts | 85° |
| 2026-05-06 18:01 | 49.02061 | 2.55447 | 374 ft | 14 kts | 86° |
| 2026-05-06 18:01 | 49.02067 | 2.55605 | 374 ft | 15 kts | 86° |
| 2026-05-06 18:01 | 49.02075 | 2.55765 | 375 ft | 15 kts | 85° |
| 2026-05-06 18:02 | 49.02086 | 2.55929 | 375 ft | 15 kts | 73° |
| 2026-05-06 18:02 | 49.02172 | 2.55986 | 376 ft | 14 kts | 353° |
| 2026-05-06 18:02 | 49.02262 | 2.55974 | 380 ft | 11 kts | 356° |
| 2026-05-06 18:02 | 49.02345 | 2.55964 | 382 ft | 12 kts | 355° |
| 2026-05-06 18:03 | 49.02439 | 2.55949 | 383 ft | 14 kts | 356° |
| 2026-05-06 18:03 | 49.02519 | 2.55941 | 383 ft | 10 kts | 354° |
| 2026-05-06 18:03 | 49.02543 | 2.55934 | 384 ft | 0 kts | 347° |
| 2026-05-06 18:03 | 49.02552 | 2.55930 | 384 ft | 5 kts | 339° |
| 2026-05-06 18:04 | 49.02616 | 2.55881 | 385 ft | 11 kts | 17° |
| 2026-05-06 18:04 | 49.02651 | 2.55974 | 386 ft | 10 kts | 75° |
| 2026-05-06 18:04 | 49.02648 | 2.56080 | 386 ft | 10 kts | 113° |
| 2026-05-06 18:04 | 49.02659 | 2.56100 | 386 ft | 6 kts | 286° |
| 2026-05-06 18:05 | 49.02661 | 2.56031 | 386 ft | 7 kts | 265° |
| 2026-05-06 18:05 | 49.02657 | 2.55947 | 386 ft | 9 kts | 265° |
| 2026-05-06 18:05 | 49.02640 | 2.55586 | 383 ft | 71 kts | 267° |
| 2026-05-06 18:05 | 49.02580 | 2.54474 | 380 ft | 137 kts | 266° |
| 2026-05-06 18:06 | 49.02497 | 2.52854 | 708 ft | 161 kts | 268° |
| 2026-05-06 18:06 | 49.02384 | 2.51163 | 1344 ft | 165 kts | 267° |
| 2026-05-06 18:06 | 49.02228 | 2.49433 | 2038 ft | 166 kts | 267° |
| 2026-05-06 18:06 | 49.02063 | 2.47717 | 2713 ft | 166 kts | 267° |
| 2026-05-06 18:07 | 49.01903 | 2.46002 | 3359 ft | 167 kts | 267° |
| 2026-05-06 18:07 | 49.01743 | 2.44223 | 3913 ft | 175 kts | 267° |
| 2026-05-06 18:07 | 49.01731 | 2.42262 | 4348 ft | 187 kts | 291° |
| 2026-05-06 18:07 | 49.02568 | 2.40554 | 4810 ft | 197 kts | 327° |
| 2026-05-06 18:08 | 49.03958 | 2.39698 | 5248 ft | 215 kts | 360° |
| 2026-05-06 18:08 | 49.05451 | 2.40459 | 5620 ft | 240 kts | 40° |
| 2026-05-06 18:08 | 49.06395 | 2.42757 | 6139 ft | 262 kts | 73° |
| 2026-05-06 18:08 | 49.06749 | 2.45528 | 6810 ft | 275 kts | 80° |
| 2026-05-06 18:09 | 49.06931 | 2.48433 | 7647 ft | 281 kts | 90° |
| 2026-05-06 18:09 | 49.06744 | 2.51376 | 8520 ft | 284 kts | 97° |
| 2026-05-06 18:09 | 49.06453 | 2.54340 | 9351 ft | 288 kts | 97° |
| 2026-05-06 18:09 | 49.06173 | 2.57354 | 10157 ft | 291 kts | 96° |
| 2026-05-06 18:10 | 49.05916 | 2.60473 | 10742 ft | 303 kts | 95° |
| 2026-05-06 18:10 | 49.05672 | 2.63678 | 11424 ft | 309 kts | 95° |
| 2026-05-06 18:10 | 49.05430 | 2.66940 | 12216 ft | 313 kts | 96° |
| 2026-05-06 18:10 | 49.05141 | 2.70238 | 12973 ft | 317 kts | 97° |
| 2026-05-06 18:11 | 49.04832 | 2.73533 | 13701 ft | 321 kts | 97° |
| 2026-05-06 18:11 | 49.04512 | 2.76912 | 14409 ft | 324 kts | 97° |
| 2026-05-06 18:11 | 49.04191 | 2.80324 | 15156 ft | 328 kts | 97° |
| 2026-05-06 18:11 | 49.03871 | 2.83717 | 15861 ft | 331 kts | 98° |
| 2026-05-06 18:12 | 49.03543 | 2.87193 | 16551 ft | 334 kts | 98° |
| 2026-05-06 18:12 | 49.03210 | 2.90712 | 17225 ft | 338 kts | 98° |
| 2026-05-06 18:12 | 49.02875 | 2.94244 | 17882 ft | 341 kts | 98° |
| 2026-05-06 18:12 | 49.02537 | 2.97807 | 18535 ft | 344 kts | 98° |
| 2026-05-06 18:13 | 49.02194 | 3.01427 | 19174 ft | 348 kts | 98° |
| 2026-05-06 18:13 | 49.01845 | 3.05095 | 19805 ft | 351 kts | 98° |
| 2026-05-06 18:13 | 49.01495 | 3.08758 | 20430 ft | 354 kts | 98° |
| 2026-05-06 18:13 | 49.01141 | 3.12446 | 21035 ft | 357 kts | 98° |
| 2026-05-06 18:14 | 49.00780 | 3.16191 | 21625 ft | 360 kts | 98° |
| 2026-05-06 18:14 | 49.00418 | 3.19929 | 22201 ft | 363 kts | 98° |
| 2026-05-06 18:14 | 49.00050 | 3.23734 | 22758 ft | 366 kts | 98° |
| 2026-05-06 18:14 | 48.99676 | 3.27571 | 23303 ft | 369 kts | 98° |
| 2026-05-06 18:15 | 48.99299 | 3.31424 | 23845 ft | 372 kts | 98° |
| 2026-05-06 18:15 | 48.98918 | 3.35319 | 24379 ft | 375 kts | 98° |
| 2026-05-06 18:15 | 48.98534 | 3.39227 | 24897 ft | 378 kts | 99° |
| 2026-05-06 18:15 | 48.98142 | 3.43185 | 25409 ft | 381 kts | 99° |
| 2026-05-06 18:16 | 48.97744 | 3.47195 | 25898 ft | 384 kts | 98° |
| 2026-05-06 18:16 | 48.97347 | 3.51163 | 26347 ft | 387 kts | 98° |
| 2026-05-06 18:16 | 48.96937 | 3.55257 | 26809 ft | 390 kts | 98° |
| 2026-05-06 18:16 | 48.96538 | 3.59280 | 27264 ft | 392 kts | 98° |
| 2026-05-06 18:17 | 48.96129 | 3.63427 | 27731 ft | 394 kts | 98° |
| 2026-05-06 18:17 | 48.95725 | 3.67513 | 28203 ft | 396 kts | 99° |
| 2026-05-06 18:17 | 48.95314 | 3.71639 | 28664 ft | 397 kts | 99° |
| 2026-05-06 18:17 | 48.94898 | 3.75792 | 29088 ft | 399 kts | 100° |
| 2026-05-06 18:18 | 48.94482 | 3.79923 | 29501 ft | 401 kts | 100° |
| 2026-05-06 18:18 | 48.94056 | 3.84143 | 29913 ft | 403 kts | 100° |
| 2026-05-06 18:18 | 48.93634 | 3.88307 | 30308 ft | 405 kts | 100° |
| 2026-05-06 18:18 | 48.93205 | 3.92517 | 30754 ft | 405 kts | 101° |
| 2026-05-06 18:19 | 48.92777 | 3.96712 | 31246 ft | 403 kts | 101° |
| 2026-05-06 18:19 | 48.92342 | 4.00939 | 31640 ft | 403 kts | 101° |
| 2026-05-06 18:19 | 48.91907 | 4.05140 | 31956 ft | 404 kts | 101° |
| 2026-05-06 18:19 | 48.91474 | 4.09313 | 32249 ft | 405 kts | 101° |
| 2026-05-06 18:20 | 48.90986 | 4.13528 | 32552 ft | 406 kts | 103° |
| 2026-05-06 18:20 | 48.90335 | 4.17706 | 32809 ft | 406 kts | 106° |
| 2026-05-06 18:20 | 48.88541 | 4.25833 | 32903 ft | 407 kts | 113° |
| 2026-05-06 18:21 | 48.86100 | 4.33571 | 32890 ft | 412 kts | 120° |
| 2026-05-06 18:21 | 48.83331 | 4.41115 | 32888 ft | 414 kts | 120° |
| 2026-05-06 18:22 | 48.80521 | 4.48753 | 32907 ft | 413 kts | 120° |
| 2026-05-06 18:22 | 48.77737 | 4.56306 | 32898 ft | 413 kts | 120° |
| 2026-05-06 18:23 | 48.74932 | 4.63902 | 32891 ft | 413 kts | 120° |
| 2026-05-06 18:23 | 48.72144 | 4.71431 | 32884 ft | 412 kts | 120° |
| 2026-05-06 18:24 | 48.69339 | 4.78985 | 32884 ft | 412 kts | 120° |
| 2026-05-06 18:24 | 48.66543 | 4.86494 | 32884 ft | 411 kts | 120° |
| 2026-05-06 18:25 | 48.63730 | 4.94028 | 32872 ft | 411 kts | 120° |
| 2026-05-06 18:25 | 48.60928 | 5.01510 | 32864 ft | 411 kts | 120° |
| 2026-05-06 18:26 | 48.58127 | 5.08972 | 32869 ft | 411 kts | 120° |
| 2026-05-06 18:26 | 48.55297 | 5.16486 | 32857 ft | 412 kts | 120° |
| 2026-05-06 18:27 | 48.52482 | 5.23938 | 32854 ft | 412 kts | 120° |
| 2026-05-06 18:27 | 48.49655 | 5.31402 | 32855 ft | 412 kts | 120° |
| 2026-05-06 18:28 | 48.46806 | 5.38902 | 32855 ft | 412 kts | 120° |
| 2026-05-06 18:28 | 48.43965 | 5.46362 | 32844 ft | 412 kts | 120° |
| 2026-05-06 18:29 | 48.41124 | 5.53803 | 32850 ft | 412 kts | 120° |
| 2026-05-06 18:29 | 48.38279 | 5.61232 | 32856 ft | 412 kts | 121° |
| 2026-05-06 18:30 | 48.35411 | 5.68705 | 32850 ft | 412 kts | 120° |
| 2026-05-06 18:30 | 48.33163 | 5.76522 | 32846 ft | 408 kts | 108° |
| 2026-05-06 18:31 | 48.32041 | 5.84854 | 32861 ft | 409 kts | 97° |
| 2026-05-06 18:31 | 48.32079 | 5.93370 | 32859 ft | 410 kts | 86° |
| 2026-05-06 18:32 | 48.32683 | 6.01844 | 32865 ft | 410 kts | 85° |
| 2026-05-06 18:32 | 48.33293 | 6.10280 | 32867 ft | 409 kts | 85° |
| 2026-05-06 18:33 | 48.33891 | 6.18767 | 32869 ft | 410 kts | 86° |
| 2026-05-06 18:33 | 48.33463 | 6.26890 | 32853 ft | 379 kts | 119° |
| 2026-05-06 18:34 | 48.31888 | 6.29943 | 32850 ft | 366 kts | 141° |
| 2026-05-06 18:34 | 48.29767 | 6.31956 | 32850 ft | 363 kts | 158° |
| 2026-05-06 18:34 | 48.27327 | 6.32911 | 32859 ft | 362 kts | 175° |
| 2026-05-06 18:34 | 48.24852 | 6.32709 | 32865 ft | 363 kts | 192° |
| 2026-05-06 18:35 | 48.22484 | 6.31332 | 32855 ft | 366 kts | 210° |
| 2026-05-06 18:35 | 48.20542 | 6.28923 | 32852 ft | 370 kts | 228° |
| 2026-05-06 18:35 | 48.19192 | 6.25656 | 32864 ft | 375 kts | 247° |
| 2026-05-06 18:35 | 48.18597 | 6.21859 | 32871 ft | 379 kts | 261° |
| 2026-05-06 18:36 | 48.18102 | 6.14011 | 32873 ft | 380 kts | 262° |
| 2026-05-06 18:36 | 48.17577 | 6.06127 | 32872 ft | 381 kts | 264° |
| 2026-05-06 18:37 | 48.17782 | 6.02175 | 32855 ft | 385 kts | 285° |
| 2026-05-06 18:37 | 48.18900 | 5.98592 | 32874 ft | 388 kts | 306° |
| 2026-05-06 18:37 | 48.20813 | 5.95735 | 32884 ft | 390 kts | 326° |
| 2026-05-06 18:37 | 48.23259 | 5.94033 | 32885 ft | 390 kts | 347° |
| 2026-05-06 18:38 | 48.25944 | 5.93685 | 32885 ft | 389 kts | 7° |
| 2026-05-06 18:38 | 48.28524 | 5.94716 | 32883 ft | 387 kts | 28° |
| 2026-05-06 18:38 | 48.30724 | 5.97008 | 32890 ft | 384 kts | 48° |
| 2026-05-06 18:38 | 48.32242 | 6.00193 | 32873 ft | 380 kts | 68° |
| 2026-05-06 18:39 | 48.32975 | 6.03974 | 32881 ft | 376 kts | 85° |
| 2026-05-06 18:39 | 48.33219 | 6.07887 | 32878 ft | 375 kts | 87° |
| 2026-05-06 18:40 | 48.33922 | 6.19509 | 32870 ft | 376 kts | 86° |
| 2026-05-06 18:40 | 48.33992 | 6.23416 | 32862 ft | 373 kts | 102° |
| 2026-05-06 18:40 | 48.33140 | 6.27042 | 32861 ft | 368 kts | 123° |
| 2026-05-06 18:40 | 48.31520 | 6.29983 | 32856 ft | 365 kts | 141° |
| 2026-05-06 18:41 | 48.29406 | 6.31951 | 32856 ft | 364 kts | 159° |
| 2026-05-06 18:41 | 48.26950 | 6.32828 | 32866 ft | 363 kts | 177° |
| 2026-05-06 18:41 | 48.24441 | 6.32463 | 32866 ft | 364 kts | 195° |
| 2026-05-06 18:41 | 48.22131 | 6.30921 | 32857 ft | 367 kts | 213° |
| 2026-05-06 18:42 | 48.20256 | 6.28332 | 32859 ft | 371 kts | 231° |
| 2026-05-06 18:42 | 48.19034 | 6.24946 | 32864 ft | 376 kts | 250° |
| 2026-05-06 18:42 | 48.18554 | 6.21120 | 32872 ft | 379 kts | 262° |
| 2026-05-06 18:43 | 48.18058 | 6.13276 | 32871 ft | 380 kts | 262° |
| 2026-05-06 18:43 | 48.17549 | 6.05395 | 32871 ft | 381 kts | 268° |
| 2026-05-06 18:43 | 48.17918 | 6.01515 | 32859 ft | 385 kts | 289° |
| 2026-05-06 18:44 | 48.19206 | 5.97990 | 32875 ft | 389 kts | 309° |
| 2026-05-06 18:44 | 48.21234 | 5.95327 | 32883 ft | 390 kts | 330° |
| 2026-05-06 18:44 | 48.23726 | 5.93870 | 32883 ft | 390 kts | 351° |
| 2026-05-06 18:44 | 48.26427 | 5.93772 | 32887 ft | 389 kts | 11° |
| 2026-05-06 18:45 | 48.28936 | 5.95029 | 32883 ft | 386 kts | 31° |
| 2026-05-06 18:45 | 48.31031 | 5.97499 | 32883 ft | 383 kts | 52° |
| 2026-05-06 18:45 | 48.32431 | 6.00838 | 32875 ft | 379 kts | 71° |
| 2026-05-06 18:45 | 48.33026 | 6.04662 | 32881 ft | 375 kts | 86° |
| 2026-05-06 18:46 | 48.33254 | 6.08520 | 32872 ft | 375 kts | 87° |
| 2026-05-06 18:46 | 48.33712 | 6.16323 | 32875 ft | 376 kts | 86° |
| 2026-05-06 18:47 | 48.33912 | 6.24102 | 32860 ft | 372 kts | 106° |
| 2026-05-06 18:47 | 48.32898 | 6.27635 | 32863 ft | 368 kts | 127° |
| 2026-05-06 18:47 | 48.31179 | 6.30405 | 32862 ft | 365 kts | 144° |
| 2026-05-06 18:47 | 48.28973 | 6.32201 | 32864 ft | 364 kts | 162° |
| 2026-05-06 18:48 | 48.26490 | 6.32857 | 32875 ft | 363 kts | 180° |
| 2026-05-06 18:48 | 48.24028 | 6.32280 | 32864 ft | 365 kts | 198° |
| 2026-05-06 18:48 | 48.21759 | 6.30532 | 32859 ft | 368 kts | 216° |
| 2026-05-06 18:48 | 48.19984 | 6.27778 | 32868 ft | 372 kts | 235° |
| 2026-05-06 18:49 | 48.18895 | 6.24269 | 32869 ft | 377 kts | 254° |
| 2026-05-06 18:49 | 48.18262 | 6.16505 | 32880 ft | 380 kts | 263° |
| 2026-05-06 18:50 | 48.18081 | 6.08589 | 32864 ft | 389 kts | 275° |
| 2026-05-06 18:50 | 48.19526 | 6.00907 | 32869 ft | 386 kts | 295° |
| 2026-05-06 18:51 | 48.22619 | 5.94363 | 32879 ft | 387 kts | 315° |
| 2026-05-06 18:51 | 48.26983 | 5.89748 | 32886 ft | 388 kts | 335° |
| 2026-05-06 18:52 | 48.32175 | 5.87566 | 32892 ft | 389 kts | 355° |
| 2026-05-06 18:52 | 48.37509 | 5.88118 | 32888 ft | 387 kts | 15° |
| 2026-05-06 18:53 | 48.42419 | 5.91329 | 32873 ft | 385 kts | 36° |
| 2026-05-06 18:53 | 48.46338 | 5.96853 | 32873 ft | 396 kts | 55° |
| 2026-05-06 18:54 | 48.48851 | 6.04305 | 32882 ft | 404 kts | 76° |
| 2026-05-06 18:54 | 48.49504 | 6.12641 | 32870 ft | 404 kts | 94° |
| 2026-05-06 18:55 | 48.49197 | 6.21091 | 32861 ft | 406 kts | 95° |
| 2026-05-06 18:55 | 48.48866 | 6.29521 | 32862 ft | 406 kts | 95° |
| 2026-05-06 18:56 | 48.48549 | 6.38026 | 32866 ft | 406 kts | 95° |
| 2026-05-06 18:56 | 48.48236 | 6.46479 | 32868 ft | 406 kts | 95° |
| 2026-05-06 18:57 | 48.47921 | 6.54900 | 32865 ft | 405 kts | 95° |
| 2026-05-06 18:57 | 48.47602 | 6.63306 | 32862 ft | 405 kts | 95° |
| 2026-05-06 18:58 | 48.47275 | 6.71759 | 32852 ft | 405 kts | 96° |
| 2026-05-06 18:58 | 48.46944 | 6.80207 | 32862 ft | 403 kts | 96° |
| 2026-05-06 18:58 | 48.46793 | 6.84347 | 32859 ft | 389 kts | 96° |
| 2026-05-06 18:59 | 48.46646 | 6.88349 | 32856 ft | 378 kts | 96° |
| 2026-05-06 18:59 | 48.46340 | 6.96222 | 32850 ft | 377 kts | 96° |
| 2026-05-06 19:00 | 48.46023 | 7.04030 | 32857 ft | 377 kts | 96° |
| 2026-05-06 19:00 | 48.45694 | 7.11939 | 32861 ft | 378 kts | 96° |
| 2026-05-06 19:01 | 48.45363 | 7.19801 | 32850 ft | 378 kts | 96° |
| 2026-05-06 19:01 | 48.45026 | 7.27660 | 32847 ft | 379 kts | 96° |
| 2026-05-06 19:02 | 48.44653 | 7.35544 | 32626 ft | 380 kts | 97° |
| 2026-05-06 19:02 | 48.44437 | 7.39517 | 32416 ft | 379 kts | 97° |
| 2026-05-06 19:02 | 48.44228 | 7.43478 | 32215 ft | 378 kts | 97° |
| 2026-05-06 19:02 | 48.44026 | 7.47365 | 32015 ft | 378 kts | 97° |
| 2026-05-06 19:03 | 48.43823 | 7.51301 | 31815 ft | 377 kts | 96° |
| 2026-05-06 19:03 | 48.43619 | 7.55238 | 31614 ft | 376 kts | 96° |
| 2026-05-06 19:03 | 48.43425 | 7.59105 | 31405 ft | 375 kts | 96° |
| 2026-05-06 19:03 | 48.43243 | 7.63005 | 31141 ft | 371 kts | 95° |
| 2026-05-06 19:04 | 48.43093 | 7.66817 | 30788 ft | 366 kts | 95° |
| 2026-05-06 19:04 | 48.43053 | 7.70629 | 30403 ft | 363 kts | 90° |
| 2026-05-06 19:04 | 48.43124 | 7.74426 | 30028 ft | 359 kts | 91° |
| 2026-05-06 19:04 | 48.43090 | 7.78161 | 29800 ft | 359 kts | 95° |
| 2026-05-06 19:05 | 48.42945 | 7.81881 | 29612 ft | 359 kts | 96° |
| 2026-05-06 19:05 | 48.42773 | 7.85610 | 29438 ft | 359 kts | 96° |
| 2026-05-06 19:05 | 48.42587 | 7.89367 | 29261 ft | 360 kts | 95° |
| 2026-05-06 19:05 | 48.42730 | 7.93091 | 28828 ft | 365 kts | 83° |
| 2026-05-06 19:06 | 48.43238 | 7.96876 | 27885 ft | 378 kts | 79° |
| 2026-05-06 19:06 | 48.43844 | 8.00793 | 27063 ft | 395 kts | 78° |
| 2026-05-06 19:06 | 48.44490 | 8.04892 | 26876 ft | 406 kts | 78° |
| 2026-05-06 19:06 | 48.45137 | 8.08991 | 26712 ft | 409 kts | 78° |
| 2026-05-06 19:07 | 48.45800 | 8.13176 | 26565 ft | 409 kts | 78° |
| 2026-05-06 19:07 | 48.46452 | 8.17282 | 26427 ft | 409 kts | 78° |
| 2026-05-06 19:07 | 48.47109 | 8.21435 | 26283 ft | 408 kts | 78° |
| 2026-05-06 19:07 | 48.47767 | 8.25582 | 26148 ft | 407 kts | 78° |
| 2026-05-06 19:08 | 48.48429 | 8.29727 | 26007 ft | 406 kts | 78° |
| 2026-05-06 19:08 | 48.49082 | 8.33809 | 25872 ft | 405 kts | 78° |
| 2026-05-06 19:08 | 48.49742 | 8.37948 | 25726 ft | 404 kts | 78° |
| 2026-05-06 19:08 | 48.50404 | 8.42071 | 25591 ft | 404 kts | 78° |
| 2026-05-06 19:09 | 48.51066 | 8.46169 | 25452 ft | 403 kts | 78° |
| 2026-05-06 19:09 | 48.51718 | 8.50225 | 25322 ft | 403 kts | 78° |
| 2026-05-06 19:09 | 48.52377 | 8.54312 | 25184 ft | 402 kts | 78° |
| 2026-05-06 19:09 | 48.53035 | 8.58388 | 25041 ft | 401 kts | 78° |
| 2026-05-06 19:10 | 48.53696 | 8.62491 | 24905 ft | 400 kts | 78° |
| 2026-05-06 19:10 | 48.54346 | 8.66533 | 24772 ft | 400 kts | 79° |
| 2026-05-06 19:10 | 48.55005 | 8.70613 | 24632 ft | 398 kts | 79° |
| 2026-05-06 19:10 | 48.55650 | 8.74605 | 24408 ft | 393 kts | 78° |
| 2026-05-06 19:11 | 48.56295 | 8.78593 | 23892 ft | 391 kts | 79° |
| 2026-05-06 19:11 | 48.56930 | 8.82528 | 23311 ft | 390 kts | 78° |
| 2026-05-06 19:11 | 48.57566 | 8.86493 | 22764 ft | 388 kts | 78° |
| 2026-05-06 19:11 | 48.58194 | 8.90432 | 22068 ft | 390 kts | 79° |
| 2026-05-06 19:12 | 48.58828 | 8.94410 | 21096 ft | 399 kts | 78° |
| 2026-05-06 19:12 | 48.59482 | 8.98534 | 20054 ft | 409 kts | 79° |
| 2026-05-06 19:12 | 48.60144 | 9.02728 | 18978 ft | 418 kts | 78° |
| 2026-05-06 19:12 | 48.60809 | 9.07000 | 17912 ft | 425 kts | 79° |
| 2026-05-06 19:13 | 48.61469 | 9.11291 | 17057 ft | 425 kts | 79° |
| 2026-05-06 19:13 | 48.62130 | 9.15634 | 16344 ft | 423 kts | 78° |
| 2026-05-06 19:13 | 48.62773 | 9.19931 | 15685 ft | 419 kts | 78° |
| 2026-05-06 19:13 | 48.63396 | 9.24194 | 14965 ft | 416 kts | 78° |
| 2026-05-06 19:14 | 48.64004 | 9.28424 | 14263 ft | 413 kts | 79° |
| 2026-05-06 19:14 | 48.64596 | 9.32646 | 13603 ft | 410 kts | 78° |
| 2026-05-06 19:14 | 48.65177 | 9.36856 | 12910 ft | 408 kts | 78° |
| 2026-05-06 19:14 | 48.65744 | 9.41027 | 12286 ft | 404 kts | 78° |
| 2026-05-06 19:15 | 48.66286 | 9.45102 | 11831 ft | 395 kts | 78° |
| 2026-05-06 19:15 | 48.66806 | 9.49036 | 11476 ft | 372 kts | 78° |
| 2026-05-06 19:15 | 48.67296 | 9.52763 | 11031 ft | 353 kts | 78° |
| 2026-05-06 19:15 | 48.67757 | 9.56302 | 10759 ft | 330 kts | 78° |
| 2026-05-06 19:16 | 48.68180 | 9.59571 | 10674 ft | 304 kts | 78° |
| 2026-05-06 19:16 | 48.68565 | 9.62574 | 10571 ft | 286 kts | 78° |
| 2026-05-06 19:16 | 48.68983 | 9.65467 | 10378 ft | 277 kts | 70° |
| 2026-05-06 19:16 | 48.69969 | 9.67884 | 10145 ft | 266 kts | 40° |
| 2026-05-06 19:17 | 48.71509 | 9.69278 | 9672 ft | 258 kts | 12° |
| 2026-05-06 19:17 | 48.73252 | 9.69363 | 9149 ft | 252 kts | 342° |
| 2026-05-06 19:17 | 48.74748 | 9.68121 | 8772 ft | 242 kts | 311° |
| 2026-05-06 19:17 | 48.75592 | 9.66036 | 8387 ft | 235 kts | 289° |
| 2026-05-06 19:18 | 48.76088 | 9.63681 | 7997 ft | 232 kts | 285° |
| 2026-05-06 19:18 | 48.76499 | 9.61363 | 7600 ft | 230 kts | 284° |
| 2026-05-06 19:18 | 48.76896 | 9.59005 | 7180 ft | 228 kts | 283° |
| 2026-05-06 19:18 | 48.76949 | 9.56668 | 6732 ft | 228 kts | 256° |
| 2026-05-06 19:19 | 48.76189 | 9.54543 | 6301 ft | 229 kts | 235° |
| 2026-05-06 19:19 | 48.75296 | 9.52602 | 5910 ft | 224 kts | 243° |
| 2026-05-06 19:19 | 48.74599 | 9.50498 | 5512 ft | 220 kts | 249° |
| 2026-05-06 19:19 | 48.74055 | 9.48370 | 5010 ft | 214 kts | 253° |
| 2026-05-06 19:20 | 48.73599 | 9.46275 | 4382 ft | 211 kts | 254° |
| 2026-05-06 19:20 | 48.73180 | 9.44185 | 4026 ft | 202 kts | 255° |
| 2026-05-06 19:20 | 48.72798 | 9.42249 | 3983 ft | 188 kts | 256° |
| 2026-05-06 19:20 | 48.72429 | 9.40343 | 3985 ft | 188 kts | 256° |
| 2026-05-06 19:21 | 48.72079 | 9.38315 | 4245 ft | 208 kts | 265° |
| 2026-05-06 19:21 | 48.72297 | 9.36171 | 4753 ft | 213 kts | 296° |
| 2026-05-06 19:21 | 48.73294 | 9.34521 | 4981 ft | 220 kts | 327° |
| 2026-05-06 19:21 | 48.74775 | 9.33935 | 4986 ft | 229 kts | 359° |
| 2026-05-06 19:22 | 48.76320 | 9.34709 | 4990 ft | 239 kts | 33° |
| 2026-05-06 19:22 | 48.77406 | 9.36600 | 5000 ft | 244 kts | 58° |
| 2026-05-06 19:22 | 48.78193 | 9.38900 | 4998 ft | 246 kts | 62° |
| 2026-05-06 19:22 | 48.78907 | 9.41251 | 5000 ft | 245 kts | 63° |
| 2026-05-06 19:23 | 48.79599 | 9.43604 | 4978 ft | 243 kts | 64° |
| 2026-05-06 19:23 | 48.80271 | 9.45893 | 4793 ft | 241 kts | 63° |
| 2026-05-06 19:23 | 48.80906 | 9.48259 | 4422 ft | 245 kts | 76° |
| 2026-05-06 19:23 | 48.80886 | 9.50804 | 4091 ft | 244 kts | 110° |
| 2026-05-06 19:24 | 48.79993 | 9.52910 | 3999 ft | 235 kts | 144° |
| 2026-05-06 19:24 | 48.78593 | 9.54145 | 4005 ft | 232 kts | 160° |
| 2026-05-06 19:24 | 48.77066 | 9.54835 | 3995 ft | 225 kts | 185° |
| 2026-05-06 19:24 | 48.75635 | 9.54292 | 3982 ft | 205 kts | 219° |
| 2026-05-06 19:25 | 48.74777 | 9.52763 | 3998 ft | 187 kts | 246° |
| 2026-05-06 19:25 | 48.74343 | 9.50914 | 3993 ft | 187 kts | 254° |
| 2026-05-06 19:25 | 48.74037 | 9.48995 | 4017 ft | 186 kts | 258° |
| 2026-05-06 19:25 | 48.73731 | 9.47116 | 4061 ft | 180 kts | 256° |
| 2026-05-06 19:26 | 48.73415 | 9.45355 | 3963 ft | 170 kts | 255° |
| 2026-05-06 19:26 | 48.73100 | 9.43670 | 3749 ft | 164 kts | 255° |
| 2026-05-06 19:26 | 48.72789 | 9.42048 | 3530 ft | 158 kts | 254° |
| 2026-05-06 19:26 | 48.72479 | 9.40452 | 3337 ft | 158 kts | 255° |
| 2026-05-06 19:27 | 48.72172 | 9.38868 | 3133 ft | 156 kts | 255° |
| 2026-05-06 19:27 | 48.71876 | 9.37330 | 2930 ft | 150 kts | 253° |
| 2026-05-06 19:27 | 48.71595 | 9.35876 | 2722 ft | 140 kts | 254° |
| 2026-05-06 19:27 | 48.71328 | 9.34472 | 2550 ft | 139 kts | 251° |
| 2026-05-06 19:28 | 48.71058 | 9.33057 | 2387 ft | 139 kts | 251° |
| 2026-05-06 19:28 | 48.70790 | 9.31657 | 2178 ft | 137 kts | 250° |
| 2026-05-06 19:28 | 48.70528 | 9.30289 | 1978 ft | 136 kts | 250° |
| 2026-05-06 19:28 | 48.70264 | 9.28918 | 1815 ft | 136 kts | 257° |
| 2026-05-06 19:29 | 48.70004 | 9.27539 | 1614 ft | 135 kts | 251° |
| 2026-05-06 19:29 | 48.69741 | 9.26172 | 1452 ft | 135 kts | 255° |
| 2026-05-06 19:29 | 48.69488 | 9.24831 | 1258 ft | 134 kts | 251° |
| 2026-05-06 19:29 | 48.69236 | 9.23494 | 1195 ft | 121 kts | 252° |
| 2026-05-06 19:30 | 48.69046 | 9.22517 | 1220 ft | 72 kts | 253° |
| 2026-05-06 19:30 | 48.68938 | 9.21950 | 1235 ft | 44 kts | 260° |
| 2026-05-06 19:30 | 48.68971 | 9.21567 | 1244 ft | 23 kts | 282° |
| 2026-05-06 19:30 | 48.68991 | 9.21421 | 1247 ft | 11 kts | 281° |
| 2026-05-06 19:31 | 48.68996 | 9.21316 | 1249 ft | 9 kts | 256° |
| 2026-05-06 19:31 | 48.68978 | 9.21224 | 1250 ft | 8 kts | 251° |
| 2026-05-06 19:31 | 48.68946 | 9.21056 | 1253 ft | 7 kts | 255° |
| 2026-05-06 19:32 | 48.68936 | 9.20995 | 1255 ft | 4 kts | 257° |
| 2026-05-06 19:32 | 48.68931 | 9.20961 | 1257 ft | 3 kts | 256° |
| 2026-05-06 19:32 | 48.68921 | 9.20907 | 1259 ft | 7 kts | 253° |
| 2026-05-06 19:32 | 48.68898 | 9.20807 | 1261 ft | 12 kts | 249° |
| 2026-05-06 19:33 | 48.68892 | 9.20738 | 1263 ft | 1 kts | 273° |
| 2026-05-06 19:33 | 48.68892 | 9.20733 | 1264 ft | 0 kts | 265° |
| 2026-05-06 19:33 | 48.68892 | 9.20738 | 1263 ft | 0 kts | 281° |
| 2026-05-06 19:33 | 48.68892 | 9.20724 | 1264 ft | 2 kts | 262° |
| 2026-05-06 19:34 | 48.68878 | 9.20670 | 1266 ft | 8 kts | 249° |
| 2026-05-06 19:34 | 48.68854 | 9.20557 | 1270 ft | 13 kts | 252° |
| 2026-05-06 19:34 | 48.68829 | 9.20427 | 1274 ft | 6 kts | 254° |
| 2026-05-06 19:34 | 48.68811 | 9.20343 | 1277 ft | 10 kts | 254° |
| 2026-05-06 19:35 | 48.68788 | 9.20218 | 1282 ft | 13 kts | 254° |
| 2026-05-06 19:35 | 48.68763 | 9.20089 | 1287 ft | 10 kts | 253° |
| 2026-05-06 19:35 | 48.68767 | 9.19994 | 1289 ft | 8 kts | 304° |
| 2026-05-06 19:35 | 48.68800 | 9.19940 | 1292 ft | 6 kts | 315° |
| 2026-05-06 19:36 | 48.68843 | 9.19894 | 1296 ft | 8 kts | 339° |
| 2026-05-06 19:36 | 48.68886 | 9.19851 | 1299 ft | 7 kts | 293° |
| 2026-05-06 19:36 | 48.68882 | 9.19780 | 1302 ft | 5 kts | 256° |
| 2026-05-06 19:36 | 48.68890 | 9.19744 | 1304 ft | 5 kts | 335° |
| 2026-05-06 19:37 | 48.68930 | 9.19726 | 1306 ft | 5 kts | 343° |
| 2026-05-06 19:37 | 48.68955 | 9.19716 | 1308 ft | 1 kts | 344° |
| 2026-05-06 19:37 | 48.68956 | 9.19715 | 1308 ft | 0 kts | 344° |